sensor_id;sensor_type;location;lat;lon;timestamp;temperature;humidity
24802;DHT22;12898;50.520;12.152;2023-04-09T00:01:10;0.40;99.90
24802;DHT22;12898;50.520;12.152;2023-04-09T00:03:37;0.50;99.90
24802;DHT22;12898;50.520;12.152;2023-04-09T00:06:03;0.50;99.90
24802;DHT22;12898;50.520;12.152;2023-04-09T00:08:29;0.60;99.90
24802;DHT22;12898;50.520;12.152;2023-04-09T00:10:57;0.60;99.90
24802;DHT22;12898;50.520;12.152;2023-04-09T00:13:23;0.60;99.90
24802;DHT22;12898;50.520;12.152;2023-04-09T00:15:49;0.50;99.90
24802;DHT22;12898;50.520;12.152;2023-04-09T00:18:15;0.50;99.90
24802;DHT22;12898;50.520;12.152;2023-04-09T00:20:42;0.40;99.90
24802;DHT22;12898;50.520;12.152;2023-04-09T00:23:08;0.30;99.90
24802;DHT22;12898;50.520;12.152;2023-04-09T00:25:33;0.20;99.90
24802;DHT22;12898;50.520;12.152;2023-04-09T00:27:59;0.20;99.90
24802;DHT22;12898;50.520;12.152;2023-04-09T00:30:27;0.20;99.90
24802;DHT22;12898;50.520;12.152;2023-04-09T00:32:54;0.30;99.90
24802;DHT22;12898;50.520;12.152;2023-04-09T00:35:20;0.30;99.90
24802;DHT22;12898;50.520;12.152;2023-04-09T00:37:45;0.40;99.90
24802;DHT22;12898;50.520;12.152;2023-04-09T00:40:11;0.50;99.90
24802;DHT22;12898;50.520;12.152;2023-04-09T00:42:37;0.60;99.90
24802;DHT22;12898;50.520;12.152;2023-04-09T00:45:04;0.60;99.90
24802;DHT22;12898;50.520;12.152;2023-04-09T00:47:31;0.70;99.90
24802;DHT22;12898;50.520;12.152;2023-04-09T00:49:57;0.80;99.90
24802;DHT22;12898;50.520;12.152;2023-04-09T00:52:23;0.90;99.90
24802;DHT22;12898;50.520;12.152;2023-04-09T00:54:50;0.90;99.90
24802;DHT22;12898;50.520;12.152;2023-04-09T00:57:17;1.00;99.90
24802;DHT22;12898;50.520;12.152;2023-04-09T00:59:43;1.10;99.90
24802;DHT22;12898;50.520;12.152;2023-04-09T01:02:09;1.20;99.90
24802;DHT22;12898;50.520;12.152;2023-04-09T01:04:35;1.20;99.90
24802;DHT22;12898;50.520;12.152;2023-04-09T01:07:35;1.30;99.90
24802;DHT22;12898;50.520;12.152;2023-04-09T01:13:12;1.40;99.90
24802;DHT22;12898;50.520;12.152;2023-04-09T01:15:55;1.40;99.90
24802;DHT22;12898;50.520;12.152;2023-04-09T01:18:44;1.50;99.90
24802;DHT22;12898;50.520;12.152;2023-04-09T01:21:19;1.50;99.90
24802;DHT22;12898;50.520;12.152;2023-04-09T01:23:46;1.50;99.90
24802;DHT22;12898;50.520;12.152;2023-04-09T01:26:47;1.60;99.90
24802;DHT22;12898;50.520;12.152;2023-04-09T01:29:19;1.60;99.90
24802;DHT22;12898;50.520;12.152;2023-04-09T01:31:47;1.70;99.90
24802;DHT22;12898;50.520;12.152;2023-04-09T01:34:15;1.70;99.90
24802;DHT22;12898;50.520;12.152;2023-04-09T01:36:45;1.80;99.90
24802;DHT22;12898;50.520;12.152;2023-04-09T01:39:16;1.90;99.90
24802;DHT22;12898;50.520;12.152;2023-04-09T01:41:43;1.90;99.90
24802;DHT22;12898;50.520;12.152;2023-04-09T01:44:10;1.90;99.90
24802;DHT22;12898;50.520;12.152;2023-04-09T01:46:38;2.00;99.90
24802;DHT22;12898;50.520;12.152;2023-04-09T01:49:04;2.10;99.90
24802;DHT22;12898;50.520;12.152;2023-04-09T01:51:32;2.10;99.90
24802;DHT22;12898;50.520;12.152;2023-04-09T01:53:59;2.10;99.90
24802;DHT22;12898;50.520;12.152;2023-04-09T01:56:25;2.10;99.90
24802;DHT22;12898;50.520;12.152;2023-04-09T01:58:50;2.20;99.90
24802;DHT22;12898;50.520;12.152;2023-04-09T02:01:22;2.20;99.90
24802;DHT22;12898;50.520;12.152;2023-04-09T02:03:55;2.30;99.90
24802;DHT22;12898;50.520;12.152;2023-04-09T02:06:43;2.30;99.90
24802;DHT22;12898;50.520;12.152;2023-04-09T02:09:15;2.30;99.90
24802;DHT22;12898;50.520;12.152;2023-04-09T02:11:45;2.40;99.90
24802;DHT22;12898;50.520;12.152;2023-04-09T02:14:12;2.40;99.90
24802;DHT22;12898;50.520;12.152;2023-04-09T02:16:39;2.40;99.90
24802;DHT22;12898;50.520;12.152;2023-04-09T02:19:05;2.50;99.90
24802;DHT22;12898;50.520;12.152;2023-04-09T02:21:31;2.50;99.90
24802;DHT22;12898;50.520;12.152;2023-04-09T02:23:57;2.50;99.90
24802;DHT22;12898;50.520;12.152;2023-04-09T02:26:22;2.50;99.90
24802;DHT22;12898;50.520;12.152;2023-04-09T02:28:49;2.50;99.90
24802;DHT22;12898;50.520;12.152;2023-04-09T02:31:15;2.60;99.90
24802;DHT22;12898;50.520;12.152;2023-04-09T02:33:40;2.60;99.90
24802;DHT22;12898;50.520;12.152;2023-04-09T02:36:10;2.60;99.90
24802;DHT22;12898;50.520;12.152;2023-04-09T02:38:42;2.60;99.90
24802;DHT22;12898;50.520;12.152;2023-04-09T02:41:08;2.70;99.90
24802;DHT22;12898;50.520;12.152;2023-04-09T02:43:33;2.70;99.90
24802;DHT22;12898;50.520;12.152;2023-04-09T02:45:59;2.70;99.90
24802;DHT22;12898;50.520;12.152;2023-04-09T02:48:25;2.70;99.90
24802;DHT22;12898;50.520;12.152;2023-04-09T02:50:51;2.70;99.90
24802;DHT22;12898;50.520;12.152;2023-04-09T02:53:16;2.70;99.90
24802;DHT22;12898;50.520;12.152;2023-04-09T02:55:42;2.60;99.90
24802;DHT22;12898;50.520;12.152;2023-04-09T02:58:08;2.60;99.90
24802;DHT22;12898;50.520;12.152;2023-04-09T03:00:33;2.60;99.90
24802;DHT22;12898;50.520;12.152;2023-04-09T03:02:59;2.60;99.90
24802;DHT22;12898;50.520;12.152;2023-04-09T03:05:25;2.60;99.90
24802;DHT22;12898;50.520;12.152;2023-04-09T03:07:52;2.60;99.90
24802;DHT22;12898;50.520;12.152;2023-04-09T03:10:18;2.60;99.90
24802;DHT22;12898;50.520;12.152;2023-04-09T03:12:44;2.60;99.90
24802;DHT22;12898;50.520;12.152;2023-04-09T03:15:10;2.60;99.90
24802;DHT22;12898;50.520;12.152;2023-04-09T03:17:35;2.60;99.90
24802;DHT22;12898;50.520;12.152;2023-04-09T03:20:01;2.60;99.90
24802;DHT22;12898;50.520;12.152;2023-04-09T03:22:27;2.60;99.90
24802;DHT22;12898;50.520;12.152;2023-04-09T03:24:53;2.60;99.90
24802;DHT22;12898;50.520;12.152;2023-04-09T03:27:18;2.60;99.90
24802;DHT22;12898;50.520;12.152;2023-04-09T03:29:44;2.60;99.90
24802;DHT22;12898;50.520;12.152;2023-04-09T03:32:10;2.60;99.90
24802;DHT22;12898;50.520;12.152;2023-04-09T03:34:35;2.50;99.90
24802;DHT22;12898;50.520;12.152;2023-04-09T03:37:01;2.50;99.90
24802;DHT22;12898;50.520;12.152;2023-04-09T03:39:27;2.50;99.90
24802;DHT22;12898;50.520;12.152;2023-04-09T03:41:56;2.50;99.90
24802;DHT22;12898;50.520;12.152;2023-04-09T03:44:22;2.50;99.90
24802;DHT22;12898;50.520;12.152;2023-04-09T03:46:48;2.50;99.90
24802;DHT22;12898;50.520;12.152;2023-04-09T03:49:14;2.50;99.90
24802;DHT22;12898;50.520;12.152;2023-04-09T03:51:40;2.50;99.90
24802;DHT22;12898;50.520;12.152;2023-04-09T03:54:06;2.50;99.90
24802;DHT22;12898;50.520;12.152;2023-04-09T03:56:31;2.50;99.90
24802;DHT22;12898;50.520;12.152;2023-04-09T03:58:57;2.50;99.90
24802;DHT22;12898;50.520;12.152;2023-04-09T04:01:22;2.50;99.90
24802;DHT22;12898;50.520;12.152;2023-04-09T04:03:48;2.40;99.90
24802;DHT22;12898;50.520;12.152;2023-04-09T04:06:14;2.40;99.90
24802;DHT22;12898;50.520;12.152;2023-04-09T04:08:40;2.50;99.90
24802;DHT22;12898;50.520;12.152;2023-04-09T04:11:05;2.40;99.90
24802;DHT22;12898;50.520;12.152;2023-04-09T04:13:31;2.40;99.90
24802;DHT22;12898;50.520;12.152;2023-04-09T04:15:57;2.30;99.90
24802;DHT22;12898;50.520;12.152;2023-04-09T04:18:22;2.30;99.90
24802;DHT22;12898;50.520;12.152;2023-04-09T04:20:48;2.30;99.90
24802;DHT22;12898;50.520;12.152;2023-04-09T04:23:14;2.30;99.90
24802;DHT22;12898;50.520;12.152;2023-04-09T04:25:40;2.30;99.90
24802;DHT22;12898;50.520;12.152;2023-04-09T04:28:06;2.30;99.90
24802;DHT22;12898;50.520;12.152;2023-04-09T04:30:32;2.30;99.90
24802;DHT22;12898;50.520;12.152;2023-04-09T04:32:58;2.30;99.90
24802;DHT22;12898;50.520;12.152;2023-04-09T04:35:24;2.40;99.90
24802;DHT22;12898;50.520;12.152;2023-04-09T04:37:49;2.40;99.90
24802;DHT22;12898;50.520;12.152;2023-04-09T04:40:16;2.40;99.90
24802;DHT22;12898;50.520;12.152;2023-04-09T04:42:42;2.40;99.90
24802;DHT22;12898;50.520;12.152;2023-04-09T04:45:08;2.40;99.90
24802;DHT22;12898;50.520;12.152;2023-04-09T04:47:34;2.40;99.90
24802;DHT22;12898;50.520;12.152;2023-04-09T04:49:59;2.40;99.90
24802;DHT22;12898;50.520;12.152;2023-04-09T04:52:25;2.40;99.90
24802;DHT22;12898;50.520;12.152;2023-04-09T04:54:51;2.40;99.90
24802;DHT22;12898;50.520;12.152;2023-04-09T04:57:17;2.40;99.90
24802;DHT22;12898;50.520;12.152;2023-04-09T04:59:42;2.40;99.90
24802;DHT22;12898;50.520;12.152;2023-04-09T05:02:08;2.40;99.90
24802;DHT22;12898;50.520;12.152;2023-04-09T05:04:34;2.50;99.90
24802;DHT22;12898;50.520;12.152;2023-04-09T05:07:00;2.50;99.90
24802;DHT22;12898;50.520;12.152;2023-04-09T05:09:25;2.50;99.90
24802;DHT22;12898;50.520;12.152;2023-04-09T05:11:51;2.50;99.90
24802;DHT22;12898;50.520;12.152;2023-04-09T05:14:17;2.60;99.90
24802;DHT22;12898;50.520;12.152;2023-04-09T05:16:43;2.60;99.90
24802;DHT22;12898;50.520;12.152;2023-04-09T05:19:09;2.60;99.90
24802;DHT22;12898;50.520;12.152;2023-04-09T05:21:34;2.70;99.90
24802;DHT22;12898;50.520;12.152;2023-04-09T05:24:00;2.70;99.90
24802;DHT22;12898;50.520;12.152;2023-04-09T05:26:26;2.60;99.90
24802;DHT22;12898;50.520;12.152;2023-04-09T05:28:52;2.50;99.90
24802;DHT22;12898;50.520;12.152;2023-04-09T05:31:18;2.50;99.90
24802;DHT22;12898;50.520;12.152;2023-04-09T05:33:43;2.50;99.90
24802;DHT22;12898;50.520;12.152;2023-04-09T05:36:17;2.60;99.90
24802;DHT22;12898;50.520;12.152;2023-04-09T05:38:45;2.70;99.90
24802;DHT22;12898;50.520;12.152;2023-04-09T05:41:10;2.70;99.90
24802;DHT22;12898;50.520;12.152;2023-04-09T05:43:36;2.70;99.90
24802;DHT22;12898;50.520;12.152;2023-04-09T05:46:02;2.80;99.90
24802;DHT22;12898;50.520;12.152;2023-04-09T05:48:28;2.80;99.90
24802;DHT22;12898;50.520;12.152;2023-04-09T05:50:53;2.80;99.90
24802;DHT22;12898;50.520;12.152;2023-04-09T05:53:20;2.90;99.90
24802;DHT22;12898;50.520;12.152;2023-04-09T05:55:46;3.00;99.90
24802;DHT22;12898;50.520;12.152;2023-04-09T05:58:13;3.00;99.90
24802;DHT22;12898;50.520;12.152;2023-04-09T06:00:40;2.90;99.90
24802;DHT22;12898;50.520;12.152;2023-04-09T06:03:07;2.90;99.90
24802;DHT22;12898;50.520;12.152;2023-04-09T06:05:33;2.90;99.90
24802;DHT22;12898;50.520;12.152;2023-04-09T06:07:59;3.00;99.90
24802;DHT22;12898;50.520;12.152;2023-04-09T06:10:25;3.10;99.90
24802;DHT22;12898;50.520;12.152;2023-04-09T06:12:50;3.10;99.90
24802;DHT22;12898;50.520;12.152;2023-04-09T06:15:16;3.10;99.90
24802;DHT22;12898;50.520;12.152;2023-04-09T06:17:43;3.10;99.90
24802;DHT22;12898;50.520;12.152;2023-04-09T06:20:09;3.00;99.90
24802;DHT22;12898;50.520;12.152;2023-04-09T06:22:35;3.10;99.90
24802;DHT22;12898;50.520;12.152;2023-04-09T06:25:00;3.00;99.90
24802;DHT22;12898;50.520;12.152;2023-04-09T06:27:26;3.00;99.90
24802;DHT22;12898;50.520;12.152;2023-04-09T06:29:52;3.00;99.90
24802;DHT22;12898;50.520;12.152;2023-04-09T06:32:18;3.10;99.90
24802;DHT22;12898;50.520;12.152;2023-04-09T06:34:43;3.20;99.90
24802;DHT22;12898;50.520;12.152;2023-04-09T06:37:09;3.20;99.90
24802;DHT22;12898;50.520;12.152;2023-04-09T06:39:35;3.30;99.90
24802;DHT22;12898;50.520;12.152;2023-04-09T06:42:00;3.30;99.90
24802;DHT22;12898;50.520;12.152;2023-04-09T06:44:28;3.30;99.90
24802;DHT22;12898;50.520;12.152;2023-04-09T06:46:54;3.40;99.90
24802;DHT22;12898;50.520;12.152;2023-04-09T06:49:20;3.50;99.90
24802;DHT22;12898;50.520;12.152;2023-04-09T06:51:45;3.60;99.90
24802;DHT22;12898;50.520;12.152;2023-04-09T06:54:11;3.70;99.90
24802;DHT22;12898;50.520;12.152;2023-04-09T06:56:37;3.80;99.90
24802;DHT22;12898;50.520;12.152;2023-04-09T06:59:02;4.00;99.90
24802;DHT22;12898;50.520;12.152;2023-04-09T07:01:28;4.20;99.90
24802;DHT22;12898;50.520;12.152;2023-04-09T07:03:54;4.20;99.90
24802;DHT22;12898;50.520;12.152;2023-04-09T07:06:19;4.30;99.90
24802;DHT22;12898;50.520;12.152;2023-04-09T07:08:45;4.30;99.90
24802;DHT22;12898;50.520;12.152;2023-04-09T07:11:11;4.40;99.90
24802;DHT22;12898;50.520;12.152;2023-04-09T07:13:37;4.50;99.90
24802;DHT22;12898;50.520;12.152;2023-04-09T07:16:03;4.60;99.90
24802;DHT22;12898;50.520;12.152;2023-04-09T07:18:29;4.60;99.90
24802;DHT22;12898;50.520;12.152;2023-04-09T07:20:55;4.50;99.90
24802;DHT22;12898;50.520;12.152;2023-04-09T07:23:21;4.50;99.90
24802;DHT22;12898;50.520;12.152;2023-04-09T07:25:47;4.50;99.90
24802;DHT22;12898;50.520;12.152;2023-04-09T07:28:12;4.40;99.90
24802;DHT22;12898;50.520;12.152;2023-04-09T07:30:39;4.40;99.90
24802;DHT22;12898;50.520;12.152;2023-04-09T07:33:04;4.30;99.90
24802;DHT22;12898;50.520;12.152;2023-04-09T07:35:30;4.20;99.90
24802;DHT22;12898;50.520;12.152;2023-04-09T07:37:57;4.20;99.90
24802;DHT22;12898;50.520;12.152;2023-04-09T07:40:23;4.20;99.90
24802;DHT22;12898;50.520;12.152;2023-04-09T07:42:48;4.30;99.90
24802;DHT22;12898;50.520;12.152;2023-04-09T07:45:15;4.40;99.90
24802;DHT22;12898;50.520;12.152;2023-04-09T07:47:41;4.50;99.90
24802;DHT22;12898;50.520;12.152;2023-04-09T07:50:07;4.60;99.90
24802;DHT22;12898;50.520;12.152;2023-04-09T07:52:33;4.70;99.90
24802;DHT22;12898;50.520;12.152;2023-04-09T07:54:59;4.80;99.90
24802;DHT22;12898;50.520;12.152;2023-04-09T07:57:25;4.80;99.90
24802;DHT22;12898;50.520;12.152;2023-04-09T07:59:52;4.90;99.90
24802;DHT22;12898;50.520;12.152;2023-04-09T08:02:17;5.20;99.90
24802;DHT22;12898;50.520;12.152;2023-04-09T08:04:43;5.40;99.90
24802;DHT22;12898;50.520;12.152;2023-04-09T08:07:09;5.70;99.90
24802;DHT22;12898;50.520;12.152;2023-04-09T08:09:34;5.90;99.90
24802;DHT22;12898;50.520;12.152;2023-04-09T08:12:00;6.10;99.90
24802;DHT22;12898;50.520;12.152;2023-04-09T08:14:26;6.10;99.90
24802;DHT22;12898;50.520;12.152;2023-04-09T08:16:52;6.30;99.90
24802;DHT22;12898;50.520;12.152;2023-04-09T08:19:17;6.70;99.90
24802;DHT22;12898;50.520;12.152;2023-04-09T08:21:44;7.20;99.90
24802;DHT22;12898;50.520;12.152;2023-04-09T08:24:13;7.70;99.90
24802;DHT22;12898;50.520;12.152;2023-04-09T08:26:39;8.20;99.90
24802;DHT22;12898;50.520;12.152;2023-04-09T08:29:05;8.50;99.90
24802;DHT22;12898;50.520;12.152;2023-04-09T08:31:32;8.80;99.90
24802;DHT22;12898;50.520;12.152;2023-04-09T08:33:57;9.10;99.90
24802;DHT22;12898;50.520;12.152;2023-04-09T08:36:23;9.50;99.90
24802;DHT22;12898;50.520;12.152;2023-04-09T08:38:50;9.70;99.90
24802;DHT22;12898;50.520;12.152;2023-04-09T08:41:24;9.90;99.90
24802;DHT22;12898;50.520;12.152;2023-04-09T08:43:54;9.70;99.90
24802;DHT22;12898;50.520;12.152;2023-04-09T08:46:20;9.80;99.90
24802;DHT22;12898;50.520;12.152;2023-04-09T08:48:48;10.00;99.90
24802;DHT22;12898;50.520;12.152;2023-04-09T08:51:19;10.30;99.90
24802;DHT22;12898;50.520;12.152;2023-04-09T08:53:48;10.40;99.90
24802;DHT22;12898;50.520;12.152;2023-04-09T08:56:19;10.50;99.90
24802;DHT22;12898;50.520;12.152;2023-04-09T08:58:46;10.60;99.90
24802;DHT22;12898;50.520;12.152;2023-04-09T09:01:26;10.80;99.90
24802;DHT22;12898;50.520;12.152;2023-04-09T09:03:53;10.80;99.90
24802;DHT22;12898;50.520;12.152;2023-04-09T09:06:29;10.90;99.90
24802;DHT22;12898;50.520;12.152;2023-04-09T09:09:10;10.80;99.90
24802;DHT22;12898;50.520;12.152;2023-04-09T09:11:38;11.10;99.90
24802;DHT22;12898;50.520;12.152;2023-04-09T09:14:08;11.20;99.90
24802;DHT22;12898;50.520;12.152;2023-04-09T09:16:42;11.30;99.90
24802;DHT22;12898;50.520;12.152;2023-04-09T09:21:57;11.30;99.90
24802;DHT22;12898;50.520;12.152;2023-04-09T09:24:28;11.40;99.90
24802;DHT22;12898;50.520;12.152;2023-04-09T09:26:54;11.80;99.90
24802;DHT22;12898;50.520;12.152;2023-04-09T09:29:21;12.10;99.90
24802;DHT22;12898;50.520;12.152;2023-04-09T09:31:51;12.50;99.90
24802;DHT22;12898;50.520;12.152;2023-04-09T09:34:18;12.80;99.90
24802;DHT22;12898;50.520;12.152;2023-04-09T09:36:45;13.10;99.90
24802;DHT22;12898;50.520;12.152;2023-04-09T09:39:12;13.20;99.90
24802;DHT22;12898;50.520;12.152;2023-04-09T09:41:39;13.30;99.10
24802;DHT22;12898;50.520;12.152;2023-04-09T09:44:09;13.60;91.20
24802;DHT22;12898;50.520;12.152;2023-04-09T09:46:38;13.50;95.30
24802;DHT22;12898;50.520;12.152;2023-04-09T09:49:07;13.60;92.70
24802;DHT22;12898;50.520;12.152;2023-04-09T09:51:36;13.80;95.00
24802;DHT22;12898;50.520;12.152;2023-04-09T09:54:06;14.10;95.80
24802;DHT22;12898;50.520;12.152;2023-04-09T09:56:37;14.10;84.70
24802;DHT22;12898;50.520;12.152;2023-04-09T09:59:19;14.10;90.30
24802;DHT22;12898;50.520;12.152;2023-04-09T10:02:00;14.10;94.50
24802;DHT22;12898;50.520;12.152;2023-04-09T10:04:32;14.30;86.80
24802;DHT22;12898;50.520;12.152;2023-04-09T10:07:04;14.30;90.50
24802;DHT22;12898;50.520;12.152;2023-04-09T10:09:44;14.30;84.70
24802;DHT22;12898;50.520;12.152;2023-04-09T10:12:11;14.30;90.70
24802;DHT22;12898;50.520;12.152;2023-04-09T10:14:37;14.40;86.00
24802;DHT22;12898;50.520;12.152;2023-04-09T10:17:04;14.40;81.40
24802;DHT22;12898;50.520;12.152;2023-04-09T10:19:37;14.50;86.40
24802;DHT22;12898;50.520;12.152;2023-04-09T10:22:12;14.70;91.80
24802;DHT22;12898;50.520;12.152;2023-04-09T10:24:39;14.70;85.00
24802;DHT22;12898;50.520;12.152;2023-04-09T10:27:10;14.50;84.60
24802;DHT22;12898;50.520;12.152;2023-04-09T10:29:44;14.10;87.70
24802;DHT22;12898;50.520;12.152;2023-04-09T10:32:12;13.90;90.80
24802;DHT22;12898;50.520;12.152;2023-04-09T10:34:48;14.00;90.20
24802;DHT22;12898;50.520;12.152;2023-04-09T10:37:25;14.00;87.50
24802;DHT22;12898;50.520;12.152;2023-04-09T10:39:52;13.90;91.30
24802;DHT22;12898;50.520;12.152;2023-04-09T10:42:36;14.20;91.80
24802;DHT22;12898;50.520;12.152;2023-04-09T10:45:09;14.70;91.00
24802;DHT22;12898;50.520;12.152;2023-04-09T10:47:38;15.30;88.00
24802;DHT22;12898;50.520;12.152;2023-04-09T10:52:55;15.60;78.90
24802;DHT22;12898;50.520;12.152;2023-04-09T10:55:38;15.60;82.60
24802;DHT22;12898;50.520;12.152;2023-04-09T10:58:08;16.00;78.30
24802;DHT22;12898;50.520;12.152;2023-04-09T11:00:42;16.40;79.00
24802;DHT22;12898;50.520;12.152;2023-04-09T11:03:19;16.70;78.20
24802;DHT22;12898;50.520;12.152;2023-04-09T11:06:03;16.90;77.50
24802;DHT22;12898;50.520;12.152;2023-04-09T11:08:34;17.00;73.60
24802;DHT22;12898;50.520;12.152;2023-04-09T11:11:00;17.20;69.00
24802;DHT22;12898;50.520;12.152;2023-04-09T11:13:28;17.20;71.60
24802;DHT22;12898;50.520;12.152;2023-04-09T11:15:55;17.30;73.30
24802;DHT22;12898;50.520;12.152;2023-04-09T11:18:23;17.40;64.30
24802;DHT22;12898;50.520;12.152;2023-04-09T11:21:01;17.20;67.00
24802;DHT22;12898;50.520;12.152;2023-04-09T11:23:28;17.30;69.50
24802;DHT22;12898;50.520;12.152;2023-04-09T11:25:54;17.00;66.80
24802;DHT22;12898;50.520;12.152;2023-04-09T11:28:23;17.20;71.00
24802;DHT22;12898;50.520;12.152;2023-04-09T11:30:52;17.60;74.10
24802;DHT22;12898;50.520;12.152;2023-04-09T11:33:17;18.00;70.10
24802;DHT22;12898;50.520;12.152;2023-04-09T11:35:43;18.50;65.80
24802;DHT22;12898;50.520;12.152;2023-04-09T11:38:10;18.80;65.80
24802;DHT22;12898;50.520;12.152;2023-04-09T11:40:39;18.60;58.80
24802;DHT22;12898;50.520;12.152;2023-04-09T11:43:12;18.00;61.70
24802;DHT22;12898;50.520;12.152;2023-04-09T11:45:40;17.30;63.70
24802;DHT22;12898;50.520;12.152;2023-04-09T11:48:06;16.70;64.60
24802;DHT22;12898;50.520;12.152;2023-04-09T11:50:31;16.30;67.80
24802;DHT22;12898;50.520;12.152;2023-04-09T11:52:57;16.10;67.80
24802;DHT22;12898;50.520;12.152;2023-04-09T11:55:25;16.00;69.80
24802;DHT22;12898;50.520;12.152;2023-04-09T11:57:55;16.00;67.80
24802;DHT22;12898;50.520;12.152;2023-04-09T12:00:22;15.80;64.30
24802;DHT22;12898;50.520;12.152;2023-04-09T12:02:57;15.90;69.50
24802;DHT22;12898;50.520;12.152;2023-04-09T12:05:26;15.80;66.70
24802;DHT22;12898;50.520;12.152;2023-04-09T12:07:58;15.70;69.30
24802;DHT22;12898;50.520;12.152;2023-04-09T12:10:27;15.90;69.80
24802;DHT22;12898;50.520;12.152;2023-04-09T12:12:54;16.00;69.00
24802;DHT22;12898;50.520;12.152;2023-04-09T12:15:22;15.90;68.20
24802;DHT22;12898;50.520;12.152;2023-04-09T12:17:50;15.80;68.00
24802;DHT22;12898;50.520;12.152;2023-04-09T12:20:37;15.60;68.30
24802;DHT22;12898;50.520;12.152;2023-04-09T12:23:09;15.40;68.90
24802;DHT22;12898;50.520;12.152;2023-04-09T12:25:38;15.30;71.60
24802;DHT22;12898;50.520;12.152;2023-04-09T12:28:06;15.10;71.70
24802;DHT22;12898;50.520;12.152;2023-04-09T12:30:33;14.90;68.80
24802;DHT22;12898;50.520;12.152;2023-04-09T12:33:00;14.70;72.80
24802;DHT22;12898;50.520;12.152;2023-04-09T12:35:27;14.50;74.10
24802;DHT22;12898;50.520;12.152;2023-04-09T12:37:53;14.30;74.30
24802;DHT22;12898;50.520;12.152;2023-04-09T12:40:20;14.20;76.00
24802;DHT22;12898;50.520;12.152;2023-04-09T12:42:46;14.00;76.20
24802;DHT22;12898;50.520;12.152;2023-04-09T12:45:14;13.90;73.60
24802;DHT22;12898;50.520;12.152;2023-04-09T12:47:41;13.80;76.50
24802;DHT22;12898;50.520;12.152;2023-04-09T12:50:08;13.60;75.10
24802;DHT22;12898;50.520;12.152;2023-04-09T12:52:35;13.60;79.40
24802;DHT22;12898;50.520;12.152;2023-04-09T12:55:01;13.50;77.10
24802;DHT22;12898;50.520;12.152;2023-04-09T12:57:28;13.50;79.90
24802;DHT22;12898;50.520;12.152;2023-04-09T12:59:53;13.60;77.60
24802;DHT22;12898;50.520;12.152;2023-04-09T13:02:23;13.60;80.20
24802;DHT22;12898;50.520;12.152;2023-04-09T13:04:49;13.80;77.00
24802;DHT22;12898;50.520;12.152;2023-04-09T13:07:17;13.90;78.00
24802;DHT22;12898;50.520;12.152;2023-04-09T13:09:47;14.00;80.40
24802;DHT22;12898;50.520;12.152;2023-04-09T13:12:15;14.30;78.10
24802;DHT22;12898;50.520;12.152;2023-04-09T13:14:42;14.70;79.60
24802;DHT22;12898;50.520;12.152;2023-04-09T13:17:10;15.20;77.80
24802;DHT22;12898;50.520;12.152;2023-04-09T13:19:36;15.60;75.30
24802;DHT22;12898;50.520;12.152;2023-04-09T13:22:02;15.60;75.70
24802;DHT22;12898;50.520;12.152;2023-04-09T13:24:28;15.90;73.00
24802;DHT22;12898;50.520;12.152;2023-04-09T13:26:53;16.10;73.50
24802;DHT22;12898;50.520;12.152;2023-04-09T13:29:19;16.30;75.00
24802;DHT22;12898;50.520;12.152;2023-04-09T13:31:45;16.30;72.90
24802;DHT22;12898;50.520;12.152;2023-04-09T13:34:11;16.60;76.20
24802;DHT22;12898;50.520;12.152;2023-04-09T13:36:36;16.60;71.30
24802;DHT22;12898;50.520;12.152;2023-04-09T13:39:02;16.70;63.60
24802;DHT22;12898;50.520;12.152;2023-04-09T13:41:33;16.50;67.70
24802;DHT22;12898;50.520;12.152;2023-04-09T13:43:59;16.30;71.40
24802;DHT22;12898;50.520;12.152;2023-04-09T13:46:26;16.30;72.80
24802;DHT22;12898;50.520;12.152;2023-04-09T13:48:52;16.40;71.80
24802;DHT22;12898;50.520;12.152;2023-04-09T13:51:21;16.50;71.00
24802;DHT22;12898;50.520;12.152;2023-04-09T13:53:48;16.60;70.50
24802;DHT22;12898;50.520;12.152;2023-04-09T13:56:14;16.60;71.50
24802;DHT22;12898;50.520;12.152;2023-04-09T13:58:40;16.90;71.30
24802;DHT22;12898;50.520;12.152;2023-04-09T14:01:08;17.10;68.00
24802;DHT22;12898;50.520;12.152;2023-04-09T14:03:34;16.90;65.60
24802;DHT22;12898;50.520;12.152;2023-04-09T14:06:00;16.60;70.20
24802;DHT22;12898;50.520;12.152;2023-04-09T14:08:26;16.40;70.70
24802;DHT22;12898;50.520;12.152;2023-04-09T14:10:51;16.30;72.20
24802;DHT22;12898;50.520;12.152;2023-04-09T14:13:17;16.30;72.40
24802;DHT22;12898;50.520;12.152;2023-04-09T14:15:43;16.10;71.50
24802;DHT22;12898;50.520;12.152;2023-04-09T14:18:10;16.00;73.70
24802;DHT22;12898;50.520;12.152;2023-04-09T14:20:36;15.90;71.40
24802;DHT22;12898;50.520;12.152;2023-04-09T14:23:02;15.70;72.50
24802;DHT22;12898;50.520;12.152;2023-04-09T14:25:28;15.50;73.90
24802;DHT22;12898;50.520;12.152;2023-04-09T14:27:54;15.40;75.20
24802;DHT22;12898;50.520;12.152;2023-04-09T14:30:19;15.20;74.60
24802;DHT22;12898;50.520;12.152;2023-04-09T14:32:45;15.10;73.60
24802;DHT22;12898;50.520;12.152;2023-04-09T14:35:11;15.10;75.00
24802;DHT22;12898;50.520;12.152;2023-04-09T14:37:36;15.10;73.80
24802;DHT22;12898;50.520;12.152;2023-04-09T14:40:06;15.30;72.20
24802;DHT22;12898;50.520;12.152;2023-04-09T14:42:32;15.30;72.80
24802;DHT22;12898;50.520;12.152;2023-04-09T14:44:58;15.20;73.30
24802;DHT22;12898;50.520;12.152;2023-04-09T14:47:24;15.20;74.70
24802;DHT22;12898;50.520;12.152;2023-04-09T14:49:49;15.40;73.90
24802;DHT22;12898;50.520;12.152;2023-04-09T14:52:15;15.50;74.00
24802;DHT22;12898;50.520;12.152;2023-04-09T14:54:41;15.80;74.20
24802;DHT22;12898;50.520;12.152;2023-04-09T14:57:07;16.20;72.80
24802;DHT22;12898;50.520;12.152;2023-04-09T14:59:33;16.30;73.30
24802;DHT22;12898;50.520;12.152;2023-04-09T15:01:59;16.30;70.40
24802;DHT22;12898;50.520;12.152;2023-04-09T15:04:24;16.30;69.30
24802;DHT22;12898;50.520;12.152;2023-04-09T15:06:50;16.70;69.20
24802;DHT22;12898;50.520;12.152;2023-04-09T15:09:16;17.30;67.30
24802;DHT22;12898;50.520;12.152;2023-04-09T15:11:42;17.90;68.20
24802;DHT22;12898;50.520;12.152;2023-04-09T15:14:08;18.20;66.10
24802;DHT22;12898;50.520;12.152;2023-04-09T15:16:33;18.50;63.40
24802;DHT22;12898;50.520;12.152;2023-04-09T15:19:02;18.40;63.10
24802;DHT22;12898;50.520;12.152;2023-04-09T15:21:28;18.00;64.40
24802;DHT22;12898;50.520;12.152;2023-04-09T15:23:54;17.60;65.20
24802;DHT22;12898;50.520;12.152;2023-04-09T15:26:20;17.00;66.40
24802;DHT22;12898;50.520;12.152;2023-04-09T15:28:46;16.40;67.60
24802;DHT22;12898;50.520;12.152;2023-04-09T15:31:12;15.90;70.90
24802;DHT22;12898;50.520;12.152;2023-04-09T15:33:38;15.50;72.60
24802;DHT22;12898;50.520;12.152;2023-04-09T15:36:07;15.20;74.50